createdAt,value
2019-05-15T00:02:12.189Z,5.63
2019-05-15T00:04:42.794Z,5.53
2019-05-15T00:37:53.074Z,4.82
2019-05-15T00:41:01.647Z,4.75
2019-05-15T00:43:52.033Z,4.75
2019-05-15T00:46:41.294Z,4.69
2019-05-15T00:49:11.588Z,4.80
2019-05-15T00:52:01.134Z,4.71
2019-05-15T00:54:50.526Z,4.67
2019-05-15T00:57:40.393Z,4.61
2019-05-15T01:00:59.031Z,4.52
2019-05-15T01:03:28.557Z,4.55
2019-05-15T01:05:59.172Z,4.55
2019-05-15T01:08:29.439Z,4.48
2019-05-15T01:11:19.293Z,4.42
2019-05-15T01:13:49.567Z,4.39
2019-05-15T01:16:39.395Z,4.36
2019-05-15T01:19:30.708Z,4.32
2019-05-15T01:22:20.263Z,4.34
2019-05-15T01:25:29.795Z,4.18
2019-05-15T01:28:19.421Z,4.15
2019-05-15T01:31:08.844Z,4.12
2019-05-15T01:37:08.758Z,4.06
2019-05-15T01:39:58.267Z,3.95
2019-05-15T01:42:49.869Z,3.92
2019-05-15T01:45:19.640Z,3.56
2019-05-15T01:47:50.190Z,3.84
2019-05-15T01:50:39.508Z,3.77
2019-05-15T01:53:31.407Z,3.75
2019-05-15T01:56:20.723Z,3.71
2019-05-15T01:59:10.223Z,3.71
2019-05-15T02:01:59.509Z,3.63
2019-05-15T02:04:48.870Z,3.60
2019-05-15T02:07:38.989Z,3.58
2019-05-15T02:10:29.436Z,3.48
2019-05-15T02:13:19.111Z,3.41
2019-05-15T02:15:49.362Z,3.51
2019-05-15T02:18:39.369Z,3.47
2019-05-15T02:21:29.933Z,3.35
2019-05-15T02:24:19.497Z,3.28
2019-05-15T02:27:09.113Z,3.23
2019-05-15T02:29:40.779Z,3.29
2019-05-15T02:32:30.401Z,3.27
2019-05-15T02:35:19.767Z,3.20
2019-05-15T02:37:50.104Z,3.26
2019-05-15T02:40:40.439Z,3.20
2019-05-15T02:43:11.362Z,3.14
2019-05-15T02:49:12.148Z,3.06
2019-05-15T02:51:42.402Z,2.94
2019-05-15T02:54:31.739Z,2.91
2019-05-15T02:57:21.043Z,2.93
2019-05-15T02:59:51.318Z,2.94
2019-05-15T03:02:41.591Z,2.99
2019-05-15T03:05:12.604Z,2.95
2019-05-15T03:08:02.173Z,2.94
2019-05-15T03:10:51.486Z,3.00
2019-05-15T03:13:22.067Z,2.88
2019-05-15T03:16:11.371Z,2.79
2019-05-15T03:19:00.806Z,2.85
2019-05-15T03:21:31.106Z,2.87
2019-05-15T03:24:01.680Z,2.78
2019-05-15T03:26:32.063Z,2.84
2019-05-15T03:29:02.327Z,2.78
2019-05-15T03:32:07.340Z,2.75
2019-05-15T03:34:47.154Z,2.79
2019-05-15T03:37:15.053Z,2.71
2019-05-15T03:39:48.486Z,2.66
2019-05-15T03:42:39.425Z,2.67
2019-05-15T03:45:49.375Z,2.72
2019-05-15T03:48:30.952Z,2.66
2019-05-15T03:51:01.247Z,2.59
2019-05-15T03:53:50.592Z,2.77
2019-05-15T03:56:39.841Z,2.63
2019-05-15T03:59:10.149Z,2.62
2019-05-15T04:01:43.733Z,2.60
2019-05-15T04:04:12.709Z,2.49
2019-05-15T04:07:01.815Z,2.52
2019-05-15T04:09:32.097Z,2.59
2019-05-15T04:12:21.414Z,2.55
2019-05-15T04:15:10.933Z,2.57
2019-05-15T04:18:00.690Z,2.59
2019-05-15T04:20:50.163Z,2.71
2019-05-15T04:23:39.856Z,2.62
2019-05-15T04:26:49.386Z,2.67
2019-05-15T04:29:43.066Z,2.70
2019-05-15T04:32:32.342Z,2.77
2019-05-15T04:35:21.929Z,2.77
2019-05-15T04:38:11.262Z,2.79
2019-05-15T04:40:41.485Z,2.90
2019-05-15T04:43:12.271Z,2.93
2019-05-15T04:45:59.128Z,3.02
2019-05-15T04:48:19.741Z,3.06
2019-05-15T04:54:02.130Z,3.27
2019-05-15T04:56:51.411Z,3.31
2019-05-15T04:59:40.956Z,3.36
2019-05-15T05:02:16.870Z,3.43
2019-05-15T05:05:02.522Z,3.52
2019-05-15T05:07:51.832Z,3.65
2019-05-15T05:10:24.825Z,3.78
2019-05-15T05:12:59.006Z,3.84
2019-05-15T05:15:49.973Z,4.05
2019-05-15T05:18:41.842Z,4.23
2019-05-15T05:21:32.821Z,4.42
2019-05-15T05:24:22.225Z,4.63
2019-05-15T05:26:52.651Z,4.84
2019-05-15T05:29:22.996Z,5.03
2019-05-15T05:31:54.511Z,5.19
2019-05-15T05:34:31.229Z,5.33
2019-05-15T05:37:02.987Z,5.45
2019-05-15T05:39:35.150Z,5.60
2019-05-15T05:42:08.723Z,5.82
2019-05-15T05:45:02.136Z,6.08
2019-05-15T05:47:43.491Z,6.27
2019-05-15T05:50:25.023Z,6.49
2019-05-15T05:52:57.941Z,6.65
2019-05-15T05:55:53.180Z,6.73
2019-05-15T05:58:24.239Z,6.82
2019-05-15T06:01:13.813Z,6.88
2019-05-15T06:03:44.113Z,6.94
2019-05-15T06:06:34.692Z,7.08
2019-05-15T06:09:28.844Z,7.17
2019-05-15T06:11:59.120Z,7.25
2019-05-15T06:14:49.067Z,7.33
2019-05-15T06:17:39.474Z,7.43
2019-05-15T06:20:31.141Z,7.51
2019-05-15T06:23:03.044Z,7.65
2019-05-15T06:25:34.404Z,7.74
2019-05-15T06:28:05.183Z,7.77
2019-05-15T06:30:33.157Z,7.82
2019-05-15T06:36:17.872Z,8.05
2019-05-15T06:38:48.457Z,8.09
2019-05-15T06:41:43.061Z,8.17
2019-05-15T06:44:48.360Z,8.20
2019-05-15T06:47:31.808Z,8.42
2019-05-15T06:50:17.930Z,8.55
2019-05-15T06:53:00.041Z,8.66
2019-05-15T06:55:38.806Z,8.73
2019-05-15T06:58:09.463Z,8.87
2019-05-15T07:00:48.436Z,8.99
2019-05-15T07:03:21.481Z,9.16
2019-05-15T07:05:45.917Z,9.25
2019-05-15T07:08:35.245Z,9.29
2019-05-15T07:11:05.684Z,9.33
2019-05-15T07:13:39.295Z,9.45
2019-05-15T07:16:29.256Z,9.51
2019-05-15T07:19:10.652Z,9.52
2019-05-15T07:21:45.268Z,9.50
2019-05-15T07:24:15.505Z,9.65
2019-05-15T07:26:48.351Z,9.78
2019-05-15T07:31:58.621Z,10.07
2019-05-15T07:34:49.891Z,10.19
2019-05-15T07:37:22.717Z,10.40
2019-05-15T07:39:53.060Z,10.57
2019-05-15T07:42:25.652Z,10.72
2019-05-15T07:44:58.634Z,10.97
2019-05-15T07:47:40.863Z,10.93
2019-05-15T07:50:22.154Z,10.29
2019-05-15T07:53:08.804Z,10.99
2019-05-15T07:55:39.561Z,11.13
2019-05-15T07:58:31.840Z,11.40
2019-05-15T08:01:23.152Z,11.37
2019-05-15T08:04:01.658Z,11.58
2019-05-15T08:06:29.895Z,11.78
2019-05-15T08:09:00.119Z,11.99
2019-05-15T08:11:53.754Z,12.13
2019-05-15T08:17:22.326Z,12.11
2019-05-15T08:20:12.355Z,11.80
2019-05-15T08:23:03.971Z,11.84
2019-05-15T08:28:28.745Z,13.49
2019-05-15T08:31:12.544Z,14.32
2019-05-15T08:34:21.092Z,15.45
2019-05-15T08:36:51.933Z,16.43
2019-05-15T08:39:22.221Z,16.63
2019-05-15T08:41:58.485Z,17.12
2019-05-15T08:44:48.968Z,17.07
2019-05-15T08:47:23.481Z,17.00
2019-05-15T08:50:09.010Z,17.15
2019-05-15T08:52:58.781Z,17.90
2019-05-15T08:55:49.953Z,18.55
2019-05-15T08:58:20.856Z,18.72
2019-05-15T09:03:44.134Z,19.26
2019-05-15T09:06:41.004Z,18.93
2019-05-15T09:12:08.105Z,18.70
2019-05-15T09:17:18.168Z,20.19
2019-05-15T09:19:49.145Z,21.35
2019-05-15T09:22:38.503Z,21.35
2019-05-15T09:25:28.799Z,21.10
2019-05-15T09:28:19.158Z,21.10
2019-05-15T09:30:51.514Z,20.85
2019-05-15T09:33:28.624Z,20.85
2019-05-15T09:35:59.012Z,20.92
2019-05-15T09:38:49.740Z,20.79
2019-05-15T09:41:38.898Z,21.61
2019-05-15T09:44:28.499Z,21.70
2019-05-15T09:46:58.975Z,20.68
2019-05-15T09:49:44.227Z,22.19
2019-05-15T09:55:10.710Z,22.70
2019-05-15T09:57:55.309Z,22.05
2019-05-15T10:00:35.589Z,20.36
2019-05-15T10:09:38.917Z,16.37
2019-05-15T10:12:59.468Z,18.13
2019-05-15T10:15:51.908Z,18.97
2019-05-15T10:19:18.696Z,19.47
2019-05-15T10:22:09.691Z,18.01
2019-05-15T10:24:59.161Z,19.83
2019-05-15T10:27:31.160Z,19.40
2019-05-15T10:30:04.659Z,18.78
2019-05-15T10:32:53.964Z,19.07
2019-05-15T10:35:31.820Z,17.50
2019-05-15T10:44:20.241Z,16.39
2019-05-15T10:46:52.717Z,15.62
2019-05-15T10:49:33.938Z,15.67
2019-05-15T10:52:29.104Z,15.37
2019-05-15T10:55:01.717Z,15.93
2019-05-15T10:58:16.719Z,16.12
2019-05-15T11:03:00.091Z,16.03
2019-05-15T11:05:51.235Z,16.65
2019-05-15T11:08:21.698Z,17.17
2019-05-15T11:11:11.315Z,17.79
2019-05-15T11:13:41.605Z,17.04
2019-05-15T11:19:15.929Z,15.88
2019-05-15T11:22:05.213Z,16.09
2019-05-15T11:25:09.938Z,16.04
2019-05-15T11:28:08.359Z,15.95
2019-05-15T11:31:00.700Z,16.40
2019-05-15T11:37:01.841Z,15.24
2019-05-15T11:40:13.445Z,16.22
2019-05-15T11:43:23.157Z,16.19
2019-05-15T11:45:59.610Z,16.15
2019-05-15T11:51:34.106Z,15.88
2019-05-15T11:54:15.948Z,15.81
2019-05-15T11:56:55.709Z,15.90
2019-05-15T11:59:54.853Z,16.07
2019-05-15T12:02:20.576Z,16.14
2019-05-15T12:05:01.622Z,16.11
2019-05-15T12:07:34.844Z,16.05
2019-05-15T12:10:05.243Z,16.38
2019-05-15T12:15:44.928Z,16.45
2019-05-15T12:18:34.247Z,16.33
2019-05-15T12:21:19.724Z,16.43
2019-05-15T12:23:38.758Z,16.63
2019-05-15T12:26:29.162Z,15.86
2019-05-15T12:32:35.549Z,16.22
2019-05-15T12:35:20.469Z,16.13
2019-05-15T12:37:51.009Z,17.64
2019-05-15T13:01:25.968Z,17.25
2019-05-15T13:04:20.243Z,17.38
2019-05-15T13:07:16.389Z,18.04
2019-05-15T13:10:03.025Z,17.75
2019-05-15T13:16:31.288Z,16.02
2019-05-15T13:18:54.443Z,17.01
2019-05-15T13:21:50.889Z,19.97
2019-05-15T13:24:19.295Z,21.53
2019-05-15T13:27:09.495Z,21.06
2019-05-15T13:29:40.058Z,20.81
2019-05-15T13:32:31.974Z,19.76
2019-05-15T13:35:23.113Z,18.76
2019-05-15T13:38:18.024Z,18.11
2019-05-15T13:41:11.654Z,17.22
2019-05-15T13:44:03.769Z,16.78
2019-05-15T13:46:52.993Z,16.50
2019-05-15T13:49:35.178Z,16.08
2019-05-15T13:52:08.344Z,15.73
2019-05-15T13:54:59.785Z,17.02
2019-05-15T13:57:50.482Z,17.91
2019-05-15T14:07:02.925Z,16.94
2019-05-15T14:09:54.564Z,16.91
2019-05-15T14:12:25.107Z,17.28
2019-05-15T14:15:17.805Z,17.34
2019-05-15T14:18:08.714Z,17.21
2019-05-15T14:20:41.963Z,16.44
2019-05-15T14:26:29.933Z,18.37
2019-05-15T14:29:00.242Z,18.41
2019-05-15T14:32:08.453Z,17.75
2019-05-15T14:34:38.849Z,17.10
2019-05-15T14:37:30.791Z,16.39
2019-05-15T14:40:20.213Z,15.91
2019-05-15T14:43:09.536Z,15.42
2019-05-15T14:45:59.109Z,15.34
2019-05-15T14:48:49.102Z,16.88
2019-05-15T14:51:40.783Z,19.76
2019-05-15T14:57:23.911Z,25.43
2019-05-15T15:00:44.506Z,23.24
2019-05-15T15:03:02.350Z,20.21
2019-05-15T15:08:29.206Z,23.59
2019-05-15T15:11:17.892Z,23.55
2019-05-15T15:13:57.894Z,20.56
2019-05-15T15:16:29.281Z,18.90
2019-05-15T15:19:00.954Z,17.97
2019-05-15T15:21:50.528Z,17.04
2019-05-15T15:24:23.941Z,17.07
2019-05-15T15:27:08.293Z,17.53
2019-05-15T15:29:40.753Z,19.98
2019-05-15T15:32:31.275Z,20.18
2019-05-15T15:35:04.031Z,18.87
2019-05-15T15:37:53.613Z,17.62
2019-05-15T15:40:28.295Z,16.38
2019-05-15T15:42:59.216Z,16.58
2019-05-15T15:45:29.649Z,15.87
2019-05-15T15:48:19.827Z,15.43
2019-05-15T15:51:02.205Z,15.20
2019-05-15T15:53:32.944Z,14.90
2019-05-15T15:56:23.921Z,14.74
2019-05-15T15:58:59.705Z,14.61
2019-05-15T16:01:31.617Z,14.59
2019-05-15T16:04:21.259Z,14.52
2019-05-15T16:07:38.035Z,14.51
2019-05-15T16:09:48.352Z,14.58
2019-05-15T16:12:58.324Z,14.42
2019-05-15T16:15:52.065Z,14.49
2019-05-15T16:18:24.430Z,13.56
2019-05-15T16:21:14.146Z,14.48
2019-05-15T16:23:45.474Z,13.46
2019-05-15T16:26:22.475Z,14.04
2019-05-15T16:29:13.104Z,14.05
2019-05-15T16:32:02.729Z,14.25
2019-05-15T16:35:10.912Z,14.07
2019-05-15T16:37:41.285Z,14.15
2019-05-15T16:40:31.511Z,14.00
2019-05-15T16:43:20.909Z,13.87
2019-05-15T16:45:52.202Z,13.87
2019-05-15T16:48:23.142Z,13.85
2019-05-15T16:51:04.491Z,13.71
2019-05-15T16:53:35.191Z,13.74
2019-05-15T16:56:05.813Z,13.78
2019-05-15T16:58:55.169Z,13.89
2019-05-15T17:01:25.453Z,13.87
2019-05-15T17:03:55.897Z,13.78
2019-05-15T17:06:30.464Z,13.76
2019-05-15T17:09:28.731Z,13.69
2019-05-15T17:12:33.088Z,13.76
2019-05-15T17:15:03.820Z,13.69
2019-05-15T17:18:29.626Z,13.62
2019-05-15T17:20:48.473Z,13.45
2019-05-15T17:23:19.099Z,13.29
2019-05-15T17:25:49.696Z,13.15
2019-05-15T17:31:32.481Z,12.92
2019-05-15T17:34:06.108Z,12.93
2019-05-15T17:36:50.728Z,12.90
2019-05-15T17:39:34.635Z,12.78
2019-05-15T17:42:38.929Z,12.72
2019-05-15T17:45:48.117Z,12.67
2019-05-15T17:48:33.426Z,12.51
2019-05-15T17:51:14.631Z,12.36
2019-05-15T17:54:03.916Z,12.27
2019-05-15T17:56:39.231Z,12.16
2019-05-15T17:59:32.693Z,11.97
2019-05-15T18:06:14.528Z,11.74
2019-05-15T18:09:04.825Z,11.69
2019-05-15T18:11:54.417Z,11.74
2019-05-15T18:14:48.348Z,11.58
2019-05-15T18:17:45.151Z,11.74
2019-05-15T18:20:38.434Z,11.71
2019-05-15T18:23:27.475Z,11.67
2019-05-15T18:26:18.678Z,11.62
2019-05-15T18:28:50.867Z,11.55
2019-05-15T18:31:21.860Z,11.56
2019-05-15T18:33:59.204Z,11.54
2019-05-15T18:37:14.527Z,11.51
2019-05-15T18:40:06.175Z,11.48
2019-05-15T18:42:38.902Z,11.45
2019-05-15T18:45:13.833Z,11.41
2019-05-15T18:48:04.354Z,11.30
2019-05-15T18:50:44.290Z,11.24
2019-05-15T18:53:18.065Z,11.11
2019-05-15T18:56:08.950Z,10.96
2019-05-15T19:01:50.425Z,10.76
2019-05-15T19:04:23.084Z,10.69
2019-05-15T19:07:18.123Z,10.64
2019-05-15T19:09:48.242Z,10.57
2019-05-15T19:12:38.849Z,10.53
2019-05-15T19:15:29.617Z,10.48
2019-05-15T19:18:01.054Z,10.40
2019-05-15T19:20:34.103Z,10.38
2019-05-15T19:23:23.856Z,10.39
2019-05-15T19:26:18.003Z,10.20
2019-05-15T19:29:08.311Z,10.39
2019-05-15T19:31:59.880Z,10.36
2019-05-15T19:34:33.432Z,10.30
2019-05-15T19:37:23.596Z,10.26
2019-05-15T19:43:23.643Z,10.15
2019-05-15T19:46:13.024Z,10.08
2019-05-15T19:49:02.731Z,10.00
2019-05-15T19:51:38.127Z,9.98
2019-05-15T19:54:09.665Z,9.93
2019-05-15T19:59:34.212Z,9.86
2019-05-15T20:02:31.215Z,9.82
2019-05-15T20:08:38.514Z,9.85
2019-05-15T20:11:18.387Z,9.85
2019-05-15T20:14:05.881Z,9.76
2019-05-15T20:19:48.707Z,9.69
2019-05-15T20:22:41.012Z,9.70
2019-05-15T20:25:31.423Z,9.68
2019-05-15T20:28:04.079Z,9.59
2019-05-15T20:31:18.957Z,9.66
2019-05-15T20:34:29.183Z,9.68
2019-05-15T20:36:59.652Z,9.67
2019-05-15T20:39:30.423Z,9.61
2019-05-15T20:45:12.439Z,9.50
2019-05-15T20:47:42.449Z,9.43
2019-05-15T20:53:57.997Z,9.41
2019-05-15T20:56:48.999Z,9.40
2019-05-15T20:59:20.977Z,8.63
2019-05-15T21:02:38.027Z,9.36
2019-05-15T21:05:29.870Z,8.83
2019-05-15T21:08:00.421Z,9.30
2019-05-15T21:10:49.846Z,9.33
2019-05-15T21:13:20.351Z,9.29
2019-05-15T21:16:10.390Z,9.27
2019-05-15T21:18:54.302Z,9.22
2019-05-15T21:25:19.129Z,9.05
2019-05-15T21:28:10.593Z,8.96
2019-05-15T21:31:02.731Z,8.87
2019-05-15T21:33:33.125Z,8.87
2019-05-15T21:36:04.012Z,8.76
2019-05-15T21:38:53.303Z,8.76
2019-05-15T21:41:25.308Z,8.68
2019-05-15T21:44:14.880Z,8.51
2019-05-15T21:47:04.484Z,8.39
2019-05-15T21:49:35.073Z,8.29
2019-05-15T21:52:18.490Z,8.10
2019-05-15T21:55:03.171Z,7.92
2019-05-15T21:57:44.829Z,7.78
2019-05-15T22:00:38.402Z,7.58
2019-05-15T22:03:28.801Z,7.55
2019-05-15T22:06:39.790Z,7.49
2019-05-15T22:09:29.247Z,7.43
2019-05-15T22:12:01.166Z,7.24
2019-05-15T22:14:54.132Z,7.14
2019-05-15T22:17:49.036Z,7.02
2019-05-15T22:20:38.958Z,6.94
2019-05-15T22:23:30.508Z,6.90
2019-05-15T22:26:00.858Z,6.83
2019-05-15T22:28:32.512Z,6.78
2019-05-15T22:31:39.685Z,6.73
2019-05-15T22:33:58.508Z,6.75
2019-05-15T22:36:29.241Z,6.73
2019-05-15T22:38:59.576Z,6.70
2019-05-15T22:41:49.089Z,6.63
2019-05-15T22:44:20.622Z,6.58
2019-05-15T22:46:58.012Z,6.53
2019-05-15T22:49:26.002Z,6.47
2019-05-15T22:51:58.150Z,6.42
2019-05-15T22:54:49.550Z,6.35
2019-05-15T22:57:20.044Z,6.23
2019-05-15T22:59:50.328Z,6.07
2019-05-15T23:02:23.701Z,6.09
2019-05-15T23:05:23.868Z,6.07
2019-05-15T23:08:04.303Z,6.05
2019-05-15T23:10:55.242Z,6.03
2019-05-15T23:13:48.188Z,6.01
2019-05-15T23:16:51.245Z,5.95
2019-05-15T23:19:11.873Z,5.04
2019-05-15T23:21:42.389Z,5.87
2019-05-15T23:24:31.666Z,5.85
2019-05-15T23:27:21.298Z,5.74
2019-05-15T23:29:51.526Z,5.62
2019-05-15T23:32:21.844Z,5.57
2019-05-15T23:34:52.072Z,5.53
2019-05-15T23:40:30.939Z,5.47
2019-05-15T23:43:21.265Z,5.47
2019-05-15T23:46:10.551Z,5.45
2019-05-15T23:49:00.332Z,5.35
2019-05-15T23:51:42.045Z,5.28
2019-05-15T23:54:23.997Z,5.21
2019-05-15T23:57:15.052Z,5.13
2019-05-15T23:59:56.171Z,5.09
